Česky Dansk Deutsch English Español Suomi Français Magyar Italiano Nederlands norsk Polski Português svenska Türkçe

 

Het Weer

Salon (Frankrijk)

06:30, 20 augustus 2016 (GMT)

NWNNE
WE
SWSSE
Home            
Salon Istres Marseille / Marignane Aix Les Milles Nimes / Garons Orange Nimes / Courbessac St-Auban-Sur-Durance Montpellier Hyeres Le Luc Montelimar St-Raphael Beziers / Vias Cannes Mende / Brenoux Nice Le Puy Grenoble / St. Geoirs Perpignan Cassagnes-Begonhes St-Etienne Boutheon Cuneo / Levaldigi

Om een weerknop op uw website of weblog te plaatsen, copieer onderstaande code en plak die in uw pagina. In het eerste vakje staat HTML-code, in het tweede vakje UBB-code.


Add to Google

Details

Wind speed:1 bf, 2 kn, 1.0 m/s, 2.3 miles/h, 3.7 km/h
Wind direction:Variable
Visibility:Greater than 10000 m, 10 km, 32800 ft, 6.2 miles
Clouds:CAVOC
Temperature:22°C, 72°F
Gefühlte Temperatur:24°C, 75°F
Dew-point:16°C, 61°F
Atmospheric pressure:1014 hPa, 760.6 mmHg, 29.94 inHg, 1.001 atm
Relative humidity:68.8 %
METAR:LFMY 200630Z AUTO VRB02KT CAVOK 22/16 Q1014 NOSIG

Snelkoppelingen

Actuele weersinformatie van de hele wereld. Voeg locaties toe met het plus (+) symbool. Deze snelkoppelingen kunnen worden toegevoegd aan Google.

Lid van de Technetium groep

website free tracking
StatCounter NetStat W3C Validator

17-08-2022 06:46:19
astro.technetium.be money.technetium.be phote.technetium.be tafeltennistafel.technetium.be www.ligfiets.net